createdAt,value
2022-08-10T00:01:56.932Z,2.20
2022-08-10T00:06:58.792Z,2.17
2022-08-10T00:12:00.753Z,2.10
2022-08-10T00:17:02.650Z,2.03
2022-08-10T00:22:04.673Z,2.63
2022-08-10T00:27:51.759Z,2.28
2022-08-10T00:32:28.959Z,2.75
2022-08-10T00:37:30.886Z,2.28
2022-08-10T00:42:32.879Z,2.28
2022-08-10T00:47:36.776Z,2.88
2022-08-10T00:52:40.267Z,2.75
2022-08-10T00:57:42.625Z,3.03
2022-08-10T01:02:44.914Z,3.00
2022-08-10T01:08:11.346Z,2.50
2022-08-10T01:13:30.947Z,2.72
2022-08-10T01:18:55.159Z,2.17
2022-08-10T01:24:26.110Z,2.55
2022-08-10T01:29:46.147Z,2.40
2022-08-10T01:35:12.078Z,2.37
2022-08-10T01:40:17.073Z,2.33
2022-08-10T01:45:24.426Z,2.40
2022-08-10T01:50:59.870Z,2.08
2022-08-10T01:56:03.118Z,2.40
2022-08-10T02:01:07.878Z,2.20
2022-08-10T02:06:15.190Z,2.10
2022-08-10T02:11:18.882Z,2.45
2022-08-10T02:16:21.994Z,2.45
2022-08-10T02:21:24.776Z,2.00
2022-08-10T02:26:27.188Z,2.00
2022-08-10T02:31:30.422Z,2.42
2022-08-10T02:36:35.987Z,2.50
2022-08-10T02:45:14.336Z,2.45
2022-08-10T02:47:50.951Z,2.60
2022-08-10T02:53:56.609Z,2.25
2022-08-10T02:58:40.672Z,2.28
2022-08-10T03:03:52.127Z,2.55
2022-08-10T03:08:55.952Z,2.63
2022-08-10T03:14:00.865Z,2.25
2022-08-10T03:19:05.389Z,2.53
2022-08-10T03:24:28.371Z,2.38
2022-08-10T03:30:23.227Z,2.75
2022-08-10T03:34:54.314Z,3.00
2022-08-10T03:39:56.336Z,2.40
2022-08-10T03:44:59.293Z,2.78
2022-08-10T03:50:05.507Z,2.33
2022-08-10T03:56:28.878Z,2.97
2022-08-10T04:00:51.246Z,2.40
2022-08-10T04:05:53.640Z,3.03
2022-08-10T04:10:55.727Z,2.33
2022-08-10T04:15:57.667Z,3.90
2022-08-10T04:21:07.099Z,3.78
2022-08-10T04:26:10.508Z,3.63
2022-08-10T04:31:17.346Z,3.10
2022-08-10T04:36:22.325Z,3.67
2022-08-10T04:41:24.594Z,2.75
2022-08-10T04:46:55.864Z,2.95
2022-08-10T04:51:48.770Z,3.30
2022-08-10T04:56:50.623Z,2.80
2022-08-10T05:02:28.726Z,3.17
2022-08-10T05:07:18.142Z,2.88
2022-08-10T05:12:20.581Z,2.92
2022-08-10T05:17:23.009Z,3.13
2022-08-10T05:22:24.884Z,3.33
2022-08-10T05:27:26.786Z,2.90
2022-08-10T05:32:28.763Z,3.25
2022-08-10T05:38:11.846Z,2.67
2022-08-10T05:42:53.680Z,2.67
2022-08-10T05:48:55.411Z,2.75
2022-08-10T05:53:59.538Z,2.50
2022-08-10T05:58:40.957Z,2.40
2022-08-10T06:03:48.556Z,2.25
2022-08-10T06:08:51.321Z,2.42
2022-08-10T06:14:16.139Z,2.03
2022-08-10T06:19:19.389Z,2.05
2022-08-10T06:24:25.540Z,2.28
2022-08-10T06:29:34.922Z,2.03
2022-08-10T06:34:41.153Z,2.40
2022-08-10T06:39:44.027Z,2.22
2022-08-10T06:45:00.637Z,2.53
2022-08-10T06:50:10.034Z,2.40
2022-08-10T06:55:16.763Z,2.20
2022-08-10T07:00:21.088Z,2.42
2022-08-10T07:05:28.811Z,2.00
2022-08-10T07:10:41.368Z,1.95
2022-08-10T07:15:59.332Z,1.98
2022-08-10T07:21:04.224Z,2.22
2022-08-10T07:26:08.739Z,2.40
2022-08-10T07:31:36.833Z,2.80
2022-08-10T07:36:36.790Z,3.30
2022-08-10T07:41:42.316Z,3.63
2022-08-10T07:46:47.237Z,3.25
2022-08-10T07:51:54.863Z,2.88
2022-08-10T07:57:01.897Z,2.90
2022-08-10T08:02:06.468Z,2.65
2022-08-10T08:07:08.790Z,2.42
2022-08-10T08:12:12.503Z,2.20
2022-08-10T08:17:16.897Z,2.58
2022-08-10T08:24:09.123Z,2.53
2022-08-10T08:27:47.676Z,2.00
2022-08-10T08:32:50.938Z,2.20
2022-08-10T08:38:32.719Z,2.05
2022-08-10T08:43:31.585Z,2.47
2022-08-10T08:48:46.865Z,2.17
2022-08-10T08:54:07.783Z,2.00
2022-08-10T08:59:40.493Z,2.28
2022-08-10T09:05:09.439Z,1.92
2022-08-10T09:10:48.341Z,1.88
2022-08-10T09:16:10.952Z,1.85
2022-08-10T09:21:24.186Z,1.60
2022-08-10T09:26:33.475Z,1.70
2022-08-10T09:32:55.032Z,2.30
2022-08-10T09:38:01.658Z,1.60
2022-08-10T09:43:26.129Z,1.85
2022-08-10T09:48:54.932Z,2.00
2022-08-10T09:54:07.761Z,2.20
2022-08-10T09:59:26.737Z,2.13
2022-08-10T10:05:10.612Z,2.17
2022-08-10T10:10:16.871Z,1.92
2022-08-10T10:15:34.990Z,2.08
2022-08-10T10:21:07.541Z,2.03
2022-08-10T10:26:24.529Z,2.30
2022-08-10T10:31:52.285Z,2.13
2022-08-10T10:36:55.974Z,2.38
2022-08-10T10:42:42.143Z,2.28
2022-08-10T10:47:50.496Z,2.00
2022-08-10T10:53:13.858Z,1.70
2022-08-10T10:58:28.298Z,2.50
2022-08-10T11:03:45.720Z,2.40
2022-08-10T11:08:53.996Z,1.85
2022-08-10T11:20:02.782Z,2.35
2022-08-10T11:25:15.038Z,1.83
2022-08-10T11:30:26.053Z,1.90
2022-08-10T11:35:38.627Z,2.50
2022-08-10T11:41:14.602Z,2.10
2022-08-10T11:46:30.815Z,2.45
2022-08-10T11:51:44.058Z,2.03
2022-08-10T11:56:53.016Z,2.10
2022-08-10T12:01:57.274Z,1.88
2022-08-10T12:07:04.927Z,1.90
2022-08-10T12:12:30.712Z,2.33
2022-08-10T12:17:38.392Z,2.15
2022-08-10T12:22:56.905Z,2.20
2022-08-10T12:28:09.433Z,2.13
2022-08-10T12:33:21.293Z,1.90
2022-08-10T12:38:35.211Z,1.80
2022-08-10T12:44:04.924Z,2.22
2022-08-10T12:49:26.476Z,2.03
2022-08-10T12:54:32.139Z,1.67
2022-08-10T12:59:43.292Z,1.70
2022-08-10T13:04:49.566Z,2.00
2022-08-10T13:09:56.410Z,1.80
2022-08-10T13:15:43.133Z,2.15
2022-08-10T13:20:34.270Z,1.73
2022-08-10T13:25:39.015Z,2.08
2022-08-10T13:30:43.264Z,1.83
2022-08-10T13:35:58.566Z,2.15
2022-08-10T13:41:05.154Z,2.47
2022-08-10T13:46:07.502Z,1.80
2022-08-10T13:51:57.695Z,1.90
2022-08-10T13:56:52.485Z,2.10
2022-08-10T14:01:56.010Z,2.10
2022-08-10T14:07:00.673Z,1.80
2022-08-10T14:12:02.826Z,1.58
2022-08-10T14:17:07.642Z,2.03
2022-08-10T14:22:09.611Z,1.63
2022-08-10T14:27:14.187Z,1.10
2022-08-10T14:32:21.805Z,1.70
2022-08-10T14:37:33.214Z,1.42
2022-08-10T14:42:49.278Z,1.70
2022-08-10T14:48:08.553Z,1.80
2022-08-10T14:53:26.655Z,2.10
2022-08-10T14:58:59.091Z,1.67
2022-08-10T15:04:13.264Z,2.38
2022-08-10T15:09:20.146Z,1.60
2022-08-10T15:14:42.183Z,1.50
2022-08-10T15:20:02.187Z,2.15
2022-08-10T15:25:18.646Z,1.60
2022-08-10T15:30:30.036Z,1.50
2022-08-10T15:35:52.850Z,1.85
2022-08-10T15:40:56.947Z,1.83
2022-08-10T15:46:00.281Z,1.80
2022-08-10T15:51:06.456Z,1.80
2022-08-10T15:56:15.391Z,1.80
2022-08-10T16:02:12.857Z,1.50
2022-08-10T16:07:03.450Z,1.92
2022-08-10T16:12:13.104Z,1.67
2022-08-10T16:17:17.643Z,1.60
2022-08-10T16:22:35.853Z,1.58
2022-08-10T16:27:41.314Z,1.53
2022-08-10T16:32:46.644Z,1.60
2022-08-10T16:37:58.328Z,1.60
2022-08-10T16:43:04.112Z,2.30
2022-08-10T16:48:07.040Z,1.70
2022-08-10T16:53:14.304Z,2.15
2022-08-10T16:58:21.091Z,4.90
2022-08-10T17:04:06.172Z,3.00
2022-08-10T17:08:55.981Z,3.00
2022-08-10T17:14:04.237Z,1.73
2022-08-10T17:19:17.933Z,2.10
2022-08-10T17:24:25.561Z,1.73
2022-08-10T17:29:58.165Z,1.60
2022-08-10T17:35:00.115Z,1.50
2022-08-10T17:40:08.091Z,1.90
2022-08-10T17:45:47.749Z,1.70
2022-08-10T17:50:53.580Z,1.85
2022-08-10T17:55:58.226Z,1.90
2022-08-10T18:01:38.267Z,2.00
2022-08-10T18:06:28.380Z,1.83
2022-08-10T18:11:35.483Z,1.70
2022-08-10T18:16:41.702Z,1.85
2022-08-10T18:21:48.262Z,2.15
2022-08-10T18:26:52.691Z,2.75
2022-08-10T18:31:59.419Z,2.15
2022-08-10T18:37:06.125Z,1.63
2022-08-10T18:42:44.952Z,1.63
2022-08-10T18:47:59.106Z,2.20
2022-08-10T18:53:12.354Z,2.30
2022-08-10T18:58:51.829Z,1.77
2022-08-10T19:03:59.865Z,2.10
2022-08-10T19:09:45.616Z,2.65
2022-08-10T19:15:19.774Z,2.70
2022-08-10T19:20:33.045Z,3.00
2022-08-10T19:26:43.302Z,2.97
2022-08-10T19:31:43.990Z,3.10
2022-08-10T19:37:15.327Z,2.67
2022-08-10T19:42:31.313Z,2.10
2022-08-10T19:48:18.931Z,2.38
2022-08-10T19:53:29.578Z,2.00
2022-08-10T19:58:55.286Z,2.08
2022-08-10T20:04:05.865Z,2.10
2022-08-10T20:09:30.046Z,2.13
2022-08-10T20:14:53.052Z,1.77
2022-08-10T20:20:11.767Z,1.50
2022-08-10T20:25:34.059Z,1.50
2022-08-10T20:30:39.897Z,2.00
2022-08-10T20:35:58.602Z,2.00
2022-08-10T20:41:15.357Z,2.03
2022-08-10T20:46:17.190Z,1.98
2022-08-10T20:51:59.091Z,1.67
2022-08-10T20:57:55.847Z,1.90
2022-08-10T21:03:20.722Z,1.90
2022-08-10T21:09:08.499Z,1.80
2022-08-10T21:14:45.874Z,2.03
2022-08-10T21:20:14.239Z,1.83
2022-08-10T21:25:29.776Z,1.80
2022-08-10T21:31:04.440Z,2.10
2022-08-10T21:36:21.640Z,1.90
2022-08-10T21:41:56.999Z,1.92
2022-08-10T21:48:06.655Z,1.70
2022-08-10T21:53:44.060Z,1.77
2022-08-10T21:59:20.398Z,2.10
2022-08-10T22:04:45.500Z,1.83
2022-08-10T22:10:09.123Z,1.90
2022-08-10T22:15:42.592Z,1.95
2022-08-10T22:21:49.514Z,1.77
2022-08-10T22:27:46.572Z,2.25
2022-08-10T22:33:00.752Z,2.50
2022-08-10T22:38:32.517Z,2.13
2022-08-10T22:43:54.803Z,2.28
2022-08-10T22:49:00.663Z,1.90
2022-08-10T22:54:37.324Z,1.90
2022-08-10T22:59:39.389Z,2.20
2022-08-10T23:04:47.817Z,2.10
2022-08-10T23:10:11.929Z,2.20
2022-08-10T23:15:43.925Z,1.75
2022-08-10T23:20:48.448Z,2.05
2022-08-10T23:25:57.388Z,1.90
2022-08-10T23:31:00.937Z,2.10
2022-08-10T23:36:31.881Z,1.70
2022-08-10T23:41:28.521Z,1.98
2022-08-10T23:46:38.027Z,1.98
2022-08-10T23:51:56.357Z,1.73
2022-08-10T23:57:01.693Z,2.08
